sensor_id;sensor_type;location;lat;lon;timestamp;P1;durP1;ratioP1;P2;durP2;ratioP2
7383;SDS011;3733;47.994;8.820;2023-07-08T00:00:21;12.67;;;6.63;;
7383;SDS011;3733;47.994;8.820;2023-07-08T00:02:48;9.40;;;6.17;;
7383;SDS011;3733;47.994;8.820;2023-07-08T00:05:15;15.03;;;6.93;;
7383;SDS011;3733;47.994;8.820;2023-07-08T00:07:42;16.57;;;7.70;;
7383;SDS011;3733;47.994;8.820;2023-07-08T00:10:16;17.93;;;7.20;;
7383;SDS011;3733;47.994;8.820;2023-07-08T00:12:42;13.20;;;6.27;;
7383;SDS011;3733;47.994;8.820;2023-07-08T00:15:09;13.50;;;6.43;;
7383;SDS011;3733;47.994;8.820;2023-07-08T00:17:35;13.67;;;7.10;;
7383;SDS011;3733;47.994;8.820;2023-07-08T00:20:04;12.67;;;7.50;;
7383;SDS011;3733;47.994;8.820;2023-07-08T00:22:45;13.57;;;6.83;;
7383;SDS011;3733;47.994;8.820;2023-07-08T00:25:17;13.23;;;6.37;;
7383;SDS011;3733;47.994;8.820;2023-07-08T00:27:47;14.00;;;6.80;;
7383;SDS011;3733;47.994;8.820;2023-07-08T00:32:49;17.57;;;7.40;;
7383;SDS011;3733;47.994;8.820;2023-07-08T00:35:22;12.13;;;6.20;;
7383;SDS011;3733;47.994;8.820;2023-07-08T00:37:53;13.83;;;6.90;;
7383;SDS011;3733;47.994;8.820;2023-07-08T00:40:20;11.77;;;6.63;;
7383;SDS011;3733;47.994;8.820;2023-07-08T00:42:47;13.80;;;7.03;;
7383;SDS011;3733;47.994;8.820;2023-07-08T00:46:00;12.03;;;6.43;;
7383;SDS011;3733;47.994;8.820;2023-07-08T00:48:00;11.73;;;6.40;;
7383;SDS011;3733;47.994;8.820;2023-07-08T00:50:32;13.00;;;6.07;;
7383;SDS011;3733;47.994;8.820;2023-07-08T00:55:59;12.80;;;7.47;;
7383;SDS011;3733;47.994;8.820;2023-07-08T00:58:30;11.97;;;7.50;;
7383;SDS011;3733;47.994;8.820;2023-07-08T01:01:05;14.30;;;7.50;;
7383;SDS011;3733;47.994;8.820;2023-07-08T01:03:31;16.03;;;7.73;;
7383;SDS011;3733;47.994;8.820;2023-07-08T01:06:14;11.97;;;6.90;;
7383;SDS011;3733;47.994;8.820;2023-07-08T01:08:40;18.73;;;7.20;;
7383;SDS011;3733;47.994;8.820;2023-07-08T01:11:06;16.40;;;8.10;;
7383;SDS011;3733;47.994;8.820;2023-07-08T01:13:36;15.57;;;7.30;;
7383;SDS011;3733;47.994;8.820;2023-07-08T01:16:06;12.73;;;7.80;;
7383;SDS011;3733;47.994;8.820;2023-07-08T01:18:33;11.67;;;7.30;;
7383;SDS011;3733;47.994;8.820;2023-07-08T01:21:06;12.40;;;7.20;;
7383;SDS011;3733;47.994;8.820;2023-07-08T01:24:02;21.20;;;7.50;;
7383;SDS011;3733;47.994;8.820;2023-07-08T01:26:30;14.37;;;7.53;;
7383;SDS011;3733;47.994;8.820;2023-07-08T01:28:58;14.77;;;8.13;;
7383;SDS011;3733;47.994;8.820;2023-07-08T01:31:24;14.40;;;6.80;;
7383;SDS011;3733;47.994;8.820;2023-07-08T01:33:51;15.50;;;7.60;;
7383;SDS011;3733;47.994;8.820;2023-07-08T01:36:18;19.50;;;7.97;;
7383;SDS011;3733;47.994;8.820;2023-07-08T01:38:44;13.30;;;7.30;;
7383;SDS011;3733;47.994;8.820;2023-07-08T01:41:11;11.60;;;7.30;;
7383;SDS011;3733;47.994;8.820;2023-07-08T01:43:38;13.90;;;7.33;;
7383;SDS011;3733;47.994;8.820;2023-07-08T01:46:04;11.70;;;7.00;;
7383;SDS011;3733;47.994;8.820;2023-07-08T01:48:44;19.90;;;8.17;;
7383;SDS011;3733;47.994;8.820;2023-07-08T01:51:16;12.40;;;6.97;;
7383;SDS011;3733;47.994;8.820;2023-07-08T01:53:42;14.30;;;7.47;;
7383;SDS011;3733;47.994;8.820;2023-07-08T01:56:10;15.47;;;7.43;;
7383;SDS011;3733;47.994;8.820;2023-07-08T01:58:37;10.90;;;7.00;;
7383;SDS011;3733;47.994;8.820;2023-07-08T02:01:03;13.63;;;7.87;;
7383;SDS011;3733;47.994;8.820;2023-07-08T02:03:28;18.03;;;7.60;;
7383;SDS011;3733;47.994;8.820;2023-07-08T02:05:54;19.00;;;7.87;;
7383;SDS011;3733;47.994;8.820;2023-07-08T02:08:20;17.10;;;7.67;;
7383;SDS011;3733;47.994;8.820;2023-07-08T02:10:51;12.73;;;7.13;;
7383;SDS011;3733;47.994;8.820;2023-07-08T02:13:18;13.80;;;8.03;;
7383;SDS011;3733;47.994;8.820;2023-07-08T02:15:44;13.50;;;6.97;;
7383;SDS011;3733;47.994;8.820;2023-07-08T02:18:10;18.40;;;7.10;;
7383;SDS011;3733;47.994;8.820;2023-07-08T02:20:36;12.30;;;6.80;;
7383;SDS011;3733;47.994;8.820;2023-07-08T02:23:01;12.07;;;7.00;;
7383;SDS011;3733;47.994;8.820;2023-07-08T02:25:27;14.00;;;7.13;;
7383;SDS011;3733;47.994;8.820;2023-07-08T02:27:53;12.43;;;7.20;;
7383;SDS011;3733;47.994;8.820;2023-07-08T02:30:22;20.33;;;7.47;;
7383;SDS011;3733;47.994;8.820;2023-07-08T02:32:49;13.47;;;8.00;;
7383;SDS011;3733;47.994;8.820;2023-07-08T02:35:22;11.20;;;7.13;;
7383;SDS011;3733;47.994;8.820;2023-07-08T02:37:49;11.70;;;7.37;;
7383;SDS011;3733;47.994;8.820;2023-07-08T02:40:14;12.40;;;7.93;;
7383;SDS011;3733;47.994;8.820;2023-07-08T02:42:40;13.20;;;7.50;;
7383;SDS011;3733;47.994;8.820;2023-07-08T02:45:06;22.93;;;7.87;;
7383;SDS011;3733;47.994;8.820;2023-07-08T02:47:32;12.30;;;7.33;;
7383;SDS011;3733;47.994;8.820;2023-07-08T02:49:58;13.70;;;7.40;;
7383;SDS011;3733;47.994;8.820;2023-07-08T02:52:24;17.83;;;7.70;;
7383;SDS011;3733;47.994;8.820;2023-07-08T02:54:49;11.00;;;6.30;;
7383;SDS011;3733;47.994;8.820;2023-07-08T02:57:15;17.00;;;8.47;;
7383;SDS011;3733;47.994;8.820;2023-07-08T02:59:40;14.90;;;7.17;;
7383;SDS011;3733;47.994;8.820;2023-07-08T03:02:06;12.37;;;7.77;;
7383;SDS011;3733;47.994;8.820;2023-07-08T03:04:31;10.43;;;6.57;;
7383;SDS011;3733;47.994;8.820;2023-07-08T03:06:57;15.37;;;7.50;;
7383;SDS011;3733;47.994;8.820;2023-07-08T03:09:24;13.13;;;6.97;;
7383;SDS011;3733;47.994;8.820;2023-07-08T03:11:49;14.00;;;7.23;;
7383;SDS011;3733;47.994;8.820;2023-07-08T03:14:15;12.43;;;6.80;;
7383;SDS011;3733;47.994;8.820;2023-07-08T03:16:40;14.40;;;7.90;;
7383;SDS011;3733;47.994;8.820;2023-07-08T03:19:12;11.20;;;6.33;;
7383;SDS011;3733;47.994;8.820;2023-07-08T03:21:40;13.47;;;6.97;;
7383;SDS011;3733;47.994;8.820;2023-07-08T03:24:09;14.60;;;7.50;;
7383;SDS011;3733;47.994;8.820;2023-07-08T03:26:38;13.40;;;7.30;;
7383;SDS011;3733;47.994;8.820;2023-07-08T03:29:04;13.83;;;7.60;;
7383;SDS011;3733;47.994;8.820;2023-07-08T03:31:30;9.57;;;6.70;;
7383;SDS011;3733;47.994;8.820;2023-07-08T03:33:56;11.57;;;7.00;;
7383;SDS011;3733;47.994;8.820;2023-07-08T03:36:21;15.10;;;7.67;;
7383;SDS011;3733;47.994;8.820;2023-07-08T03:38:54;12.10;;;7.30;;
7383;SDS011;3733;47.994;8.820;2023-07-08T03:41:22;17.60;;;7.77;;
7383;SDS011;3733;47.994;8.820;2023-07-08T03:43:48;10.17;;;6.40;;
7383;SDS011;3733;47.994;8.820;2023-07-08T03:46:16;17.07;;;8.03;;
7383;SDS011;3733;47.994;8.820;2023-07-08T03:48:42;13.10;;;6.23;;
7383;SDS011;3733;47.994;8.820;2023-07-08T03:51:14;12.50;;;7.00;;
7383;SDS011;3733;47.994;8.820;2023-07-08T03:53:46;14.87;;;7.37;;
7383;SDS011;3733;47.994;8.820;2023-07-08T03:56:12;10.93;;;7.03;;
7383;SDS011;3733;47.994;8.820;2023-07-08T03:58:38;12.53;;;7.70;;
7383;SDS011;3733;47.994;8.820;2023-07-08T04:01:04;13.00;;;7.00;;
7383;SDS011;3733;47.994;8.820;2023-07-08T04:03:34;13.30;;;7.70;;
7383;SDS011;3733;47.994;8.820;2023-07-08T04:06:00;12.43;;;6.70;;
7383;SDS011;3733;47.994;8.820;2023-07-08T04:08:26;10.37;;;6.97;;
7383;SDS011;3733;47.994;8.820;2023-07-08T04:10:51;10.47;;;6.33;;
7383;SDS011;3733;47.994;8.820;2023-07-08T04:13:17;8.77;;;6.50;;
7383;SDS011;3733;47.994;8.820;2023-07-08T04:15:53;11.00;;;7.00;;
7383;SDS011;3733;47.994;8.820;2023-07-08T04:18:22;12.00;;;7.00;;
7383;SDS011;3733;47.994;8.820;2023-07-08T04:20:47;20.37;;;8.40;;
7383;SDS011;3733;47.994;8.820;2023-07-08T04:23:17;11.67;;;7.50;;
7383;SDS011;3733;47.994;8.820;2023-07-08T04:25:43;16.97;;;7.60;;
7383;SDS011;3733;47.994;8.820;2023-07-08T04:28:09;15.67;;;7.77;;
7383;SDS011;3733;47.994;8.820;2023-07-08T04:30:35;13.93;;;7.07;;
7383;SDS011;3733;47.994;8.820;2023-07-08T04:33:05;10.80;;;7.00;;
7383;SDS011;3733;47.994;8.820;2023-07-08T04:35:36;14.30;;;7.80;;
7383;SDS011;3733;47.994;8.820;2023-07-08T04:38:05;11.30;;;6.80;;
7383;SDS011;3733;47.994;8.820;2023-07-08T04:40:35;12.17;;;7.90;;
7383;SDS011;3733;47.994;8.820;2023-07-08T04:43:08;13.87;;;7.00;;
7383;SDS011;3733;47.994;8.820;2023-07-08T04:45:37;12.73;;;6.57;;
7383;SDS011;3733;47.994;8.820;2023-07-08T04:48:05;10.83;;;5.40;;
7383;SDS011;3733;47.994;8.820;2023-07-08T04:50:38;8.63;;;4.30;;
7383;SDS011;3733;47.994;8.820;2023-07-08T04:53:07;8.60;;;3.00;;
7383;SDS011;3733;47.994;8.820;2023-07-08T04:55:36;6.80;;;2.80;;
7383;SDS011;3733;47.994;8.820;2023-07-08T04:58:05;4.20;;;2.40;;
7383;SDS011;3733;47.994;8.820;2023-07-08T05:00:31;9.20;;;4.43;;
7383;SDS011;3733;47.994;8.820;2023-07-08T05:02:56;11.57;;;6.70;;
7383;SDS011;3733;47.994;8.820;2023-07-08T05:05:22;16.20;;;6.90;;
7383;SDS011;3733;47.994;8.820;2023-07-08T05:07:48;10.60;;;6.43;;
7383;SDS011;3733;47.994;8.820;2023-07-08T05:10:14;12.23;;;6.20;;
7383;SDS011;3733;47.994;8.820;2023-07-08T05:12:40;8.50;;;5.00;;
7383;SDS011;3733;47.994;8.820;2023-07-08T05:15:06;14.27;;;6.30;;
7383;SDS011;3733;47.994;8.820;2023-07-08T05:17:32;9.77;;;6.03;;
7383;SDS011;3733;47.994;8.820;2023-07-08T05:19:58;8.10;;;4.97;;
7383;SDS011;3733;47.994;8.820;2023-07-08T05:22:26;9.80;;;4.93;;
7383;SDS011;3733;47.994;8.820;2023-07-08T05:24:52;12.33;;;5.60;;
7383;SDS011;3733;47.994;8.820;2023-07-08T05:27:20;13.00;;;4.60;;
7383;SDS011;3733;47.994;8.820;2023-07-08T05:29:47;7.40;;;4.37;;
7383;SDS011;3733;47.994;8.820;2023-07-08T05:32:13;8.63;;;3.43;;
7383;SDS011;3733;47.994;8.820;2023-07-08T05:34:38;4.93;;;3.50;;
7383;SDS011;3733;47.994;8.820;2023-07-08T05:37:04;6.70;;;3.20;;
7383;SDS011;3733;47.994;8.820;2023-07-08T05:39:30;5.83;;;2.33;;
7383;SDS011;3733;47.994;8.820;2023-07-08T05:41:56;9.00;;;2.37;;
7383;SDS011;3733;47.994;8.820;2023-07-08T05:44:22;3.80;;;2.23;;
7383;SDS011;3733;47.994;8.820;2023-07-08T05:46:48;3.73;;;2.10;;
7383;SDS011;3733;47.994;8.820;2023-07-08T05:49:14;2.60;;;1.97;;
7383;SDS011;3733;47.994;8.820;2023-07-08T05:51:40;4.87;;;2.87;;
7383;SDS011;3733;47.994;8.820;2023-07-08T05:54:06;5.47;;;2.30;;
7383;SDS011;3733;47.994;8.820;2023-07-08T05:56:31;2.90;;;2.37;;
7383;SDS011;3733;47.994;8.820;2023-07-08T05:58:57;6.10;;;2.40;;
7383;SDS011;3733;47.994;8.820;2023-07-08T06:01:23;3.20;;;1.97;;
7383;SDS011;3733;47.994;8.820;2023-07-08T06:03:48;4.90;;;2.13;;
7383;SDS011;3733;47.994;8.820;2023-07-08T06:06:15;5.10;;;2.60;;
7383;SDS011;3733;47.994;8.820;2023-07-08T06:08:40;4.27;;;2.60;;
7383;SDS011;3733;47.994;8.820;2023-07-08T06:11:06;4.70;;;2.20;;
7383;SDS011;3733;47.994;8.820;2023-07-08T06:13:32;5.73;;;2.80;;
7383;SDS011;3733;47.994;8.820;2023-07-08T06:15:57;6.20;;;2.00;;
7383;SDS011;3733;47.994;8.820;2023-07-08T06:18:23;3.17;;;1.90;;
7383;SDS011;3733;47.994;8.820;2023-07-08T06:20:52;3.90;;;2.00;;
7383;SDS011;3733;47.994;8.820;2023-07-08T06:23:19;4.00;;;2.60;;
7383;SDS011;3733;47.994;8.820;2023-07-08T06:25:45;4.27;;;2.80;;
7383;SDS011;3733;47.994;8.820;2023-07-08T06:28:11;3.27;;;2.17;;
7383;SDS011;3733;47.994;8.820;2023-07-08T06:30:36;4.17;;;2.27;;
7383;SDS011;3733;47.994;8.820;2023-07-08T06:33:02;7.20;;;2.70;;
7383;SDS011;3733;47.994;8.820;2023-07-08T06:35:28;3.83;;;2.40;;
7383;SDS011;3733;47.994;8.820;2023-07-08T06:37:54;2.80;;;2.30;;
7383;SDS011;3733;47.994;8.820;2023-07-08T06:40:20;10.17;;;2.37;;
7383;SDS011;3733;47.994;8.820;2023-07-08T06:42:45;3.83;;;2.13;;
7383;SDS011;3733;47.994;8.820;2023-07-08T06:45:11;2.47;;;2.20;;
7383;SDS011;3733;47.994;8.820;2023-07-08T06:47:37;3.60;;;2.53;;
7383;SDS011;3733;47.994;8.820;2023-07-08T06:50:02;4.47;;;2.83;;
7383;SDS011;3733;47.994;8.820;2023-07-08T06:52:28;5.23;;;2.87;;
7383;SDS011;3733;47.994;8.820;2023-07-08T06:54:59;7.50;;;2.97;;
7383;SDS011;3733;47.994;8.820;2023-07-08T06:57:26;4.80;;;2.67;;
7383;SDS011;3733;47.994;8.820;2023-07-08T06:59:51;5.20;;;2.60;;
7383;SDS011;3733;47.994;8.820;2023-07-08T07:02:17;5.20;;;2.60;;
7383;SDS011;3733;47.994;8.820;2023-07-08T07:04:43;4.03;;;2.40;;
7383;SDS011;3733;47.994;8.820;2023-07-08T07:07:09;7.30;;;2.57;;
7383;SDS011;3733;47.994;8.820;2023-07-08T07:09:34;5.33;;;2.70;;
7383;SDS011;3733;47.994;8.820;2023-07-08T07:12:00;6.47;;;2.50;;
7383;SDS011;3733;47.994;8.820;2023-07-08T07:14:26;3.60;;;2.47;;
7383;SDS011;3733;47.994;8.820;2023-07-08T07:16:52;3.10;;;2.40;;
7383;SDS011;3733;47.994;8.820;2023-07-08T07:19:17;5.07;;;2.40;;
7383;SDS011;3733;47.994;8.820;2023-07-08T07:21:43;8.27;;;2.17;;
7383;SDS011;3733;47.994;8.820;2023-07-08T07:24:08;3.03;;;2.33;;
7383;SDS011;3733;47.994;8.820;2023-07-08T07:26:34;7.00;;;2.20;;
7383;SDS011;3733;47.994;8.820;2023-07-08T07:29:01;4.70;;;2.97;;
7383;SDS011;3733;47.994;8.820;2023-07-08T07:31:27;4.07;;;1.90;;
7383;SDS011;3733;47.994;8.820;2023-07-08T07:33:53;5.50;;;2.10;;
7383;SDS011;3733;47.994;8.820;2023-07-08T07:36:18;2.23;;;2.00;;
7383;SDS011;3733;47.994;8.820;2023-07-08T07:38:44;4.10;;;2.07;;
7383;SDS011;3733;47.994;8.820;2023-07-08T07:41:10;4.30;;;2.40;;
7383;SDS011;3733;47.994;8.820;2023-07-08T07:43:37;5.27;;;2.20;;
7383;SDS011;3733;47.994;8.820;2023-07-08T07:46:03;2.07;;;1.80;;
7383;SDS011;3733;47.994;8.820;2023-07-08T07:48:30;6.50;;;2.63;;
7383;SDS011;3733;47.994;8.820;2023-07-08T07:50:56;2.83;;;2.30;;
7383;SDS011;3733;47.994;8.820;2023-07-08T07:53:22;6.27;;;2.03;;
7383;SDS011;3733;47.994;8.820;2023-07-08T07:55:48;3.30;;;2.00;;
7383;SDS011;3733;47.994;8.820;2023-07-08T07:58:21;4.73;;;2.50;;
7383;SDS011;3733;47.994;8.820;2023-07-08T08:00:47;3.80;;;2.30;;
7383;SDS011;3733;47.994;8.820;2023-07-08T08:03:12;4.10;;;2.30;;
7383;SDS011;3733;47.994;8.820;2023-07-08T08:05:38;3.33;;;2.30;;
7383;SDS011;3733;47.994;8.820;2023-07-08T08:08:04;3.90;;;1.73;;
7383;SDS011;3733;47.994;8.820;2023-07-08T08:10:29;7.50;;;2.10;;
7383;SDS011;3733;47.994;8.820;2023-07-08T08:12:57;4.40;;;2.13;;
7383;SDS011;3733;47.994;8.820;2023-07-08T08:15:23;3.70;;;2.10;;
7383;SDS011;3733;47.994;8.820;2023-07-08T08:17:48;11.03;;;2.27;;
7383;SDS011;3733;47.994;8.820;2023-07-08T08:20:16;3.97;;;1.90;;
7383;SDS011;3733;47.994;8.820;2023-07-08T08:22:44;4.53;;;2.33;;
7383;SDS011;3733;47.994;8.820;2023-07-08T08:25:10;4.93;;;2.50;;
7383;SDS011;3733;47.994;8.820;2023-07-08T08:27:35;4.63;;;2.10;;
7383;SDS011;3733;47.994;8.820;2023-07-08T08:30:01;4.57;;;2.50;;
7383;SDS011;3733;47.994;8.820;2023-07-08T08:32:27;5.37;;;2.37;;
7383;SDS011;3733;47.994;8.820;2023-07-08T08:34:53;4.47;;;2.27;;
7383;SDS011;3733;47.994;8.820;2023-07-08T08:37:18;1.93;;;1.77;;
7383;SDS011;3733;47.994;8.820;2023-07-08T08:39:44;2.83;;;2.33;;
7383;SDS011;3733;47.994;8.820;2023-07-08T08:42:22;3.67;;;1.90;;
7383;SDS011;3733;47.994;8.820;2023-07-08T08:44:55;3.40;;;1.97;;
7383;SDS011;3733;47.994;8.820;2023-07-08T08:52:55;4.53;;;2.00;;
7383;SDS011;3733;47.994;8.820;2023-07-08T08:55:22;2.40;;;1.93;;
7383;SDS011;3733;47.994;8.820;2023-07-08T08:57:57;4.60;;;2.07;;
7383;SDS011;3733;47.994;8.820;2023-07-08T09:00:54;4.00;;;1.93;;
7383;SDS011;3733;47.994;8.820;2023-07-08T09:06:12;4.30;;;2.27;;
7383;SDS011;3733;47.994;8.820;2023-07-08T09:08:46;2.23;;;1.70;;
7383;SDS011;3733;47.994;8.820;2023-07-08T09:13:44;4.50;;;1.77;;
7383;SDS011;3733;47.994;8.820;2023-07-08T09:21:21;3.70;;;2.00;;
7383;SDS011;3733;47.994;8.820;2023-07-08T09:23:51;4.23;;;2.10;;
7383;SDS011;3733;47.994;8.820;2023-07-08T09:26:25;2.73;;;1.60;;
7383;SDS011;3733;47.994;8.820;2023-07-08T09:28:55;4.40;;;2.93;;
7383;SDS011;3733;47.994;8.820;2023-07-08T09:31:25;2.63;;;2.10;;
7383;SDS011;3733;47.994;8.820;2023-07-08T09:36:41;2.30;;;1.87;;
7383;SDS011;3733;47.994;8.820;2023-07-08T09:39:10;7.30;;;2.20;;
7383;SDS011;3733;47.994;8.820;2023-07-08T09:41:38;2.70;;;1.73;;
7383;SDS011;3733;47.994;8.820;2023-07-08T09:44:14;3.00;;;2.30;;
7383;SDS011;3733;47.994;8.820;2023-07-08T09:46:40;3.73;;;2.10;;
7383;SDS011;3733;47.994;8.820;2023-07-08T09:49:20;2.67;;;2.07;;
7383;SDS011;3733;47.994;8.820;2023-07-08T09:51:52;4.13;;;2.20;;
7383;SDS011;3733;47.994;8.820;2023-07-08T09:54:19;4.90;;;3.07;;
7383;SDS011;3733;47.994;8.820;2023-07-08T09:57:22;3.30;;;2.30;;
7383;SDS011;3733;47.994;8.820;2023-07-08T09:59:39;1.87;;;1.70;;
7383;SDS011;3733;47.994;8.820;2023-07-08T10:02:19;4.93;;;1.90;;
7383;SDS011;3733;47.994;8.820;2023-07-08T10:04:52;3.83;;;2.03;;
7383;SDS011;3733;47.994;8.820;2023-07-08T10:07:20;6.00;;;1.97;;
7383;SDS011;3733;47.994;8.820;2023-07-08T10:09:47;3.70;;;2.50;;
7383;SDS011;3733;47.994;8.820;2023-07-08T10:12:15;4.37;;;2.30;;
7383;SDS011;3733;47.994;8.820;2023-07-08T10:14:46;4.60;;;2.53;;
7383;SDS011;3733;47.994;8.820;2023-07-08T10:17:19;3.77;;;2.07;;
7383;SDS011;3733;47.994;8.820;2023-07-08T10:19:46;4.20;;;2.40;;
7383;SDS011;3733;47.994;8.820;2023-07-08T10:28:07;6.53;;;2.60;;
7383;SDS011;3733;47.994;8.820;2023-07-08T10:30:40;4.50;;;2.10;;
7383;SDS011;3733;47.994;8.820;2023-07-08T10:36:29;5.43;;;2.70;;
7383;SDS011;3733;47.994;8.820;2023-07-08T10:45:12;3.20;;;2.63;;
7383;SDS011;3733;47.994;8.820;2023-07-08T10:50:21;7.63;;;2.90;;
7383;SDS011;3733;47.994;8.820;2023-07-08T10:53:14;4.77;;;2.40;;
7383;SDS011;3733;47.994;8.820;2023-07-08T10:55:56;6.10;;;2.80;;
7383;SDS011;3733;47.994;8.820;2023-07-08T10:58:25;4.97;;;2.77;;
7383;SDS011;3733;47.994;8.820;2023-07-08T11:03:48;4.03;;;2.57;;
7383;SDS011;3733;47.994;8.820;2023-07-08T11:06:18;4.43;;;2.97;;
7383;SDS011;3733;47.994;8.820;2023-07-08T11:08:58;4.00;;;3.03;;
7383;SDS011;3733;47.994;8.820;2023-07-08T11:11:32;4.87;;;2.47;;
7383;SDS011;3733;47.994;8.820;2023-07-08T11:14:11;4.23;;;2.70;;
7383;SDS011;3733;47.994;8.820;2023-07-08T11:16:51;9.17;;;2.90;;
7383;SDS011;3733;47.994;8.820;2023-07-08T11:19:26;4.17;;;2.60;;
7383;SDS011;3733;47.994;8.820;2023-07-08T11:22:03;5.20;;;2.83;;
7383;SDS011;3733;47.994;8.820;2023-07-08T11:27:14;5.83;;;3.03;;
7383;SDS011;3733;47.994;8.820;2023-07-08T11:30:02;5.10;;;2.97;;
7383;SDS011;3733;47.994;8.820;2023-07-08T11:32:35;6.23;;;3.07;;
7383;SDS011;3733;47.994;8.820;2023-07-08T11:35:02;5.80;;;2.47;;
7383;SDS011;3733;47.994;8.820;2023-07-08T11:37:30;5.73;;;2.70;;
7383;SDS011;3733;47.994;8.820;2023-07-08T11:39:58;2.60;;;2.40;;
7383;SDS011;3733;47.994;8.820;2023-07-08T11:42:41;3.93;;;2.33;;
7383;SDS011;3733;47.994;8.820;2023-07-08T11:45:15;4.70;;;2.70;;
7383;SDS011;3733;47.994;8.820;2023-07-08T11:47:50;6.90;;;3.30;;
7383;SDS011;3733;47.994;8.820;2023-07-08T11:50:29;7.27;;;2.83;;
7383;SDS011;3733;47.994;8.820;2023-07-08T11:53:01;4.73;;;2.83;;
7383;SDS011;3733;47.994;8.820;2023-07-08T11:55:36;5.20;;;2.80;;
7383;SDS011;3733;47.994;8.820;2023-07-08T11:58:02;6.53;;;3.43;;
7383;SDS011;3733;47.994;8.820;2023-07-08T12:03:35;5.63;;;2.83;;
7383;SDS011;3733;47.994;8.820;2023-07-08T12:06:03;6.30;;;2.40;;
7383;SDS011;3733;47.994;8.820;2023-07-08T12:08:52;6.17;;;3.07;;
7383;SDS011;3733;47.994;8.820;2023-07-08T12:11:19;3.73;;;2.57;;
7383;SDS011;3733;47.994;8.820;2023-07-08T12:13:53;3.70;;;2.40;;
7383;SDS011;3733;47.994;8.820;2023-07-08T12:16:23;4.70;;;2.60;;
7383;SDS011;3733;47.994;8.820;2023-07-08T12:18:50;6.10;;;2.80;;
7383;SDS011;3733;47.994;8.820;2023-07-08T12:21:17;4.30;;;2.30;;
7383;SDS011;3733;47.994;8.820;2023-07-08T12:23:44;3.70;;;2.50;;
7383;SDS011;3733;47.994;8.820;2023-07-08T12:26:11;6.00;;;3.17;;
7383;SDS011;3733;47.994;8.820;2023-07-08T12:28:40;5.47;;;2.93;;
7383;SDS011;3733;47.994;8.820;2023-07-08T12:31:25;4.57;;;2.70;;
7383;SDS011;3733;47.994;8.820;2023-07-08T12:33:51;4.10;;;2.80;;
7383;SDS011;3733;47.994;8.820;2023-07-08T12:36:21;4.57;;;2.30;;
7383;SDS011;3733;47.994;8.820;2023-07-08T12:38:52;4.20;;;2.97;;
7383;SDS011;3733;47.994;8.820;2023-07-08T12:41:24;8.43;;;2.70;;
7383;SDS011;3733;47.994;8.820;2023-07-08T12:43:51;4.80;;;2.87;;
7383;SDS011;3733;47.994;8.820;2023-07-08T12:46:21;6.87;;;3.03;;
7383;SDS011;3733;47.994;8.820;2023-07-08T12:48:47;4.37;;;3.10;;
7383;SDS011;3733;47.994;8.820;2023-07-08T12:51:14;4.80;;;2.67;;
7383;SDS011;3733;47.994;8.820;2023-07-08T12:53:43;10.23;;;2.77;;
7383;SDS011;3733;47.994;8.820;2023-07-08T12:56:08;3.50;;;2.33;;
7383;SDS011;3733;47.994;8.820;2023-07-08T12:58:39;9.18;;;3.20;;
7383;SDS011;3733;47.994;8.820;2023-07-08T13:01:07;4.50;;;2.70;;
7383;SDS011;3733;47.994;8.820;2023-07-08T13:03:41;4.70;;;2.50;;
7383;SDS011;3733;47.994;8.820;2023-07-08T13:06:09;5.47;;;2.58;;
7383;SDS011;3733;47.994;8.820;2023-07-08T13:08:37;3.45;;;2.53;;
7383;SDS011;3733;47.994;8.820;2023-07-08T13:11:04;3.00;;;2.53;;
7383;SDS011;3733;47.994;8.820;2023-07-08T13:13:31;3.35;;;2.05;;
7383;SDS011;3733;47.994;8.820;2023-07-08T13:16:01;7.45;;;2.80;;
7383;SDS011;3733;47.994;8.820;2023-07-08T13:20:58;4.07;;;1.98;;
7383;SDS011;3733;47.994;8.820;2023-07-08T13:23:25;2.08;;;1.73;;
7383;SDS011;3733;47.994;8.820;2023-07-08T13:25:52;3.63;;;2.50;;
7383;SDS011;3733;47.994;8.820;2023-07-08T13:30:56;4.07;;;2.85;;
7383;SDS011;3733;47.994;8.820;2023-07-08T13:33:22;5.30;;;2.72;;
7383;SDS011;3733;47.994;8.820;2023-07-08T13:35:49;3.45;;;2.67;;
7383;SDS011;3733;47.994;8.820;2023-07-08T13:38:27;5.80;;;1.88;;
7383;SDS011;3733;47.994;8.820;2023-07-08T13:41:00;4.97;;;2.28;;
7383;SDS011;3733;47.994;8.820;2023-07-08T13:43:30;5.43;;;2.50;;
7383;SDS011;3733;47.994;8.820;2023-07-08T13:45:58;5.80;;;2.22;;
7383;SDS011;3733;47.994;8.820;2023-07-08T13:48:27;4.18;;;2.60;;
7383;SDS011;3733;47.994;8.820;2023-07-08T13:50:56;3.92;;;2.75;;
7383;SDS011;3733;47.994;8.820;2023-07-08T13:53:32;6.47;;;2.30;;
7383;SDS011;3733;47.994;8.820;2023-07-08T13:56:00;3.00;;;2.30;;
7383;SDS011;3733;47.994;8.820;2023-07-08T13:58:28;6.43;;;2.60;;
7383;SDS011;3733;47.994;8.820;2023-07-08T14:00:55;3.92;;;2.38;;
7383;SDS011;3733;47.994;8.820;2023-07-08T14:03:21;5.07;;;2.40;;
7383;SDS011;3733;47.994;8.820;2023-07-08T14:05:47;4.75;;;2.30;;
7383;SDS011;3733;47.994;8.820;2023-07-08T14:08:13;6.43;;;2.88;;
7383;SDS011;3733;47.994;8.820;2023-07-08T14:10:40;6.68;;;2.53;;
7383;SDS011;3733;47.994;8.820;2023-07-08T14:13:06;5.55;;;2.65;;
7383;SDS011;3733;47.994;8.820;2023-07-08T14:15:32;4.07;;;2.40;;
7383;SDS011;3733;47.994;8.820;2023-07-08T14:17:59;3.47;;;2.50;;
7383;SDS011;3733;47.994;8.820;2023-07-08T14:20:26;4.88;;;2.33;;
7383;SDS011;3733;47.994;8.820;2023-07-08T14:22:52;6.18;;;2.53;;
7383;SDS011;3733;47.994;8.820;2023-07-08T14:25:19;4.82;;;2.75;;
7383;SDS011;3733;47.994;8.820;2023-07-08T14:27:49;4.30;;;2.42;;
7383;SDS011;3733;47.994;8.820;2023-07-08T14:30:15;4.07;;;2.45;;
7383;SDS011;3733;47.994;8.820;2023-07-08T14:32:41;4.05;;;2.63;;
7383;SDS011;3733;47.994;8.820;2023-07-08T14:37:48;4.68;;;2.45;;
7383;SDS011;3733;47.994;8.820;2023-07-08T14:40:22;6.30;;;2.78;;
7383;SDS011;3733;47.994;8.820;2023-07-08T14:42:57;3.05;;;2.38;;
7383;SDS011;3733;47.994;8.820;2023-07-08T14:45:44;4.85;;;2.47;;
7383;SDS011;3733;47.994;8.820;2023-07-08T14:48:14;3.97;;;2.67;;
7383;SDS011;3733;47.994;8.820;2023-07-08T14:50:41;4.53;;;2.55;;
7383;SDS011;3733;47.994;8.820;2023-07-08T14:53:07;3.42;;;2.67;;
7383;SDS011;3733;47.994;8.820;2023-07-08T14:55:33;3.22;;;2.58;;
7383;SDS011;3733;47.994;8.820;2023-07-08T14:57:59;5.07;;;3.17;;
7383;SDS011;3733;47.994;8.820;2023-07-08T15:00:26;3.13;;;2.45;;
7383;SDS011;3733;47.994;8.820;2023-07-08T15:02:51;3.63;;;2.72;;
7383;SDS011;3733;47.994;8.820;2023-07-08T15:05:18;9.60;;;3.10;;
7383;SDS011;3733;47.994;8.820;2023-07-08T15:07:52;9.80;;;3.15;;
7383;SDS011;3733;47.994;8.820;2023-07-08T15:10:19;4.13;;;2.78;;
7383;SDS011;3733;47.994;8.820;2023-07-08T15:12:48;6.47;;;2.58;;
7383;SDS011;3733;47.994;8.820;2023-07-08T15:15:26;3.22;;;2.38;;
7383;SDS011;3733;47.994;8.820;2023-07-08T15:17:57;3.50;;;2.38;;
7383;SDS011;3733;47.994;8.820;2023-07-08T15:20:24;4.97;;;2.97;;
7383;SDS011;3733;47.994;8.820;2023-07-08T15:22:50;4.00;;;2.83;;
7383;SDS011;3733;47.994;8.820;2023-07-08T15:25:16;3.05;;;2.35;;
7383;SDS011;3733;47.994;8.820;2023-07-08T15:27:45;8.23;;;2.85;;
7383;SDS011;3733;47.994;8.820;2023-07-08T15:30:23;3.45;;;2.88;;
7383;SDS011;3733;47.994;8.820;2023-07-08T15:32:50;3.45;;;2.95;;
7383;SDS011;3733;47.994;8.820;2023-07-08T15:35:21;3.50;;;2.88;;
7383;SDS011;3733;47.994;8.820;2023-07-08T15:37:50;10.05;;;3.05;;
7383;SDS011;3733;47.994;8.820;2023-07-08T15:40:17;5.25;;;2.78;;
7383;SDS011;3733;47.994;8.820;2023-07-08T15:42:48;4.60;;;2.65;;
7383;SDS011;3733;47.994;8.820;2023-07-08T15:45:19;4.20;;;2.88;;
7383;SDS011;3733;47.994;8.820;2023-07-08T15:47:50;5.90;;;2.63;;
7383;SDS011;3733;47.994;8.820;2023-07-08T15:50:17;4.13;;;2.63;;
7383;SDS011;3733;47.994;8.820;2023-07-08T15:52:44;7.50;;;3.17;;
7383;SDS011;3733;47.994;8.820;2023-07-08T15:55:12;4.43;;;3.05;;
7383;SDS011;3733;47.994;8.820;2023-07-08T15:57:42;4.43;;;2.65;;
7383;SDS011;3733;47.994;8.820;2023-07-08T16:00:30;8.40;;;2.80;;
7383;SDS011;3733;47.994;8.820;2023-07-08T16:02:59;5.68;;;3.13;;
7383;SDS011;3733;47.994;8.820;2023-07-08T16:05:30;4.15;;;2.55;;
7383;SDS011;3733;47.994;8.820;2023-07-08T16:07:59;5.45;;;3.00;;
7383;SDS011;3733;47.994;8.820;2023-07-08T16:10:24;4.78;;;2.70;;
7383;SDS011;3733;47.994;8.820;2023-07-08T16:12:50;4.13;;;3.05;;
7383;SDS011;3733;47.994;8.820;2023-07-08T16:17:55;6.20;;;2.92;;
7383;SDS011;3733;47.994;8.820;2023-07-08T16:20:22;5.35;;;2.95;;